Airfield :
LOGIN :

Register | Disclaimer

   EN    FR    IT 

 










Legend :    VFR   Marginal VFR   IFR   Intensive IFR   Very Intensive IFR
Visi :
Ceiling :
>= 8 km
>= 3000ft
5 to 8 km
1000 to 3000 ft
1500m to 5 km
500 to 1000 ft
800 to 1500m
200 to 500 ft
< 800m
< 200 ft
Symbols :   Thunderstorms  Fog  Heavy snow  Heavy precipitations  Wind > 20 kt
SIGMETs :     Misc.  Thunderstorms  Icing  Turbulence  Mountain Waves  Volcanic Ashes







- Airport Elevation : 327 ft
- IATA code : BHX
- Download approach charts


EGBB - Birmingham

CURRENT METAR :
  • 160250Z VRB03KT 9999 FEW022 BKN032 16/15 Q1021

EXPIRED METARs :
  • 160220Z 26005KT 230V300 9999 OVC032 16/15 Q1021
  • 160150Z 25005KT 230V290 9000 -RA BKN034 BKN041 OVC048 16/15 Q1022
  • 160120Z 26004KT 9999 -RA FEW020 OVC043 16/15 Q1022
  • 160050Z 26004KT 220V280 9999 -RA SCT039 OVC047 16/15 Q1022
  • 160020Z VRB03KT 9999 BKN034 OVC039 16/15 Q1022

TAF TAF EGBB
Valid from the 16 at 00:00 until the 17 at 00:00 UTC


152301Z 1600/1624 26005KT 9999 SCT020
PROB40
TEMPO 1600/1603 8000 RA BKN012
BECMG 1603/1606 BKN010
TEMPO 1603/1616 5000 -RADZ BKN007
PROB30
TEMPO 1608/1614 4000 DZ BR BKN004
BECMG 1615/1618 SCT030
ATIS : +44 121 780 0910
No reported NOTAMs for that airfield.



MET'MAP, your aeronautical weather chart ! - Copyright ORBIFLY December 2007 - Disclaimer

ORBIFLY MET'MAP TEAM :

Programming & Development : Alexandra Zaïnal
Concept & Development : Baudouin d'Aumeries
Co-Development & Prog : Marc-Olivier Méhu
Technical & hardware support : Manuel Goepfert

Contact : metmap@orbifly.com




SOURCES & CREDITS :

   NOAA